createdAt,value
2023-02-17T00:01:34.006Z,6.60
2023-02-17T00:04:01.455Z,6.70
2023-02-17T00:06:30.078Z,6.60
2023-02-17T00:08:59.454Z,6.60
2023-02-17T00:11:28.271Z,6.60
2023-02-17T00:13:56.406Z,6.60
2023-02-17T00:16:26.433Z,6.50
2023-02-17T00:18:55.178Z,6.60
2023-02-17T00:21:24.788Z,6.60
2023-02-17T00:23:52.132Z,6.70
2023-02-17T00:26:19.854Z,6.50
2023-02-17T00:28:47.640Z,6.50
2023-02-17T00:31:20.283Z,6.50
2023-02-17T00:33:47.421Z,6.70
2023-02-17T00:36:18.818Z,6.70
2023-02-17T00:38:47.812Z,6.70
2023-02-17T00:41:18.052Z,6.80
2023-02-17T00:43:45.105Z,6.80
2023-02-17T00:46:12.037Z,6.70
2023-02-17T00:48:38.734Z,6.70
2023-02-17T00:51:05.684Z,6.60
2023-02-17T00:53:34.626Z,6.70
2023-02-17T00:56:01.636Z,6.70
2023-02-17T00:58:28.388Z,6.80
2023-02-17T01:00:56.832Z,6.80
2023-02-17T01:03:25.038Z,6.90
2023-02-17T01:05:52.678Z,7.10
2023-02-17T01:08:19.670Z,7.10
2023-02-17T01:10:47.622Z,7.30
2023-02-17T01:13:16.269Z,7.40
2023-02-17T01:15:51.333Z,7.40
2023-02-17T01:18:20.140Z,7.50
2023-02-17T01:20:47.049Z,7.60
2023-02-17T01:23:14.193Z,7.80
2023-02-17T01:25:43.713Z,7.90
2023-02-17T01:28:15.766Z,8.00
2023-02-17T01:30:42.505Z,7.90
2023-02-17T01:33:25.540Z,7.70
2023-02-17T01:35:54.216Z,7.50
2023-02-17T01:38:20.865Z,7.40
2023-02-17T01:40:49.235Z,7.50
2023-02-17T01:43:17.753Z,7.40
2023-02-17T01:45:50.449Z,7.20
2023-02-17T01:48:21.220Z,7.20
2023-02-17T01:51:15.084Z,7.10
2023-02-17T01:53:44.614Z,7.00
2023-02-17T01:56:13.795Z,7.10
2023-02-17T01:58:43.629Z,7.00
2023-02-17T02:01:10.664Z,7.00
2023-02-17T02:03:39.084Z,7.00
2023-02-17T02:06:10.643Z,6.90
2023-02-17T02:08:48.385Z,6.90
2023-02-17T02:11:15.046Z,6.80
2023-02-17T02:13:41.699Z,6.90
2023-02-17T02:16:21.604Z,6.80
2023-02-17T02:18:58.882Z,6.80
2023-02-17T02:21:58.135Z,6.80
2023-02-17T02:24:27.885Z,6.80
2023-02-17T02:27:22.148Z,6.80
2023-02-17T02:30:14.100Z,6.80
2023-02-17T02:33:20.327Z,6.80
2023-02-17T02:35:50.020Z,6.70
2023-02-17T02:38:16.677Z,6.80
2023-02-17T02:41:08.356Z,6.80
2023-02-17T02:43:35.338Z,6.90
2023-02-17T02:46:02.071Z,6.90
2023-02-17T02:48:28.899Z,7.00
2023-02-17T02:51:22.545Z,7.00
2023-02-17T02:54:07.540Z,7.00
2023-02-17T02:57:00.730Z,7.00
2023-02-17T02:59:43.899Z,7.00
2023-02-17T03:02:18.193Z,7.10
2023-02-17T03:05:02.339Z,7.20
2023-02-17T03:07:34.877Z,7.20
2023-02-17T03:10:02.007Z,7.50
2023-02-17T03:12:29.231Z,7.50
2023-02-17T03:15:25.277Z,7.50
2023-02-17T03:17:51.946Z,7.70
2023-02-17T03:20:19.069Z,7.70
2023-02-17T03:22:48.242Z,7.80
2023-02-17T03:25:16.027Z,7.80
2023-02-17T03:27:43.819Z,7.80
2023-02-17T03:30:11.084Z,8.00
2023-02-17T03:32:37.798Z,8.10
2023-02-17T03:35:05.028Z,8.10
2023-02-17T03:37:32.022Z,8.10
2023-02-17T03:39:58.711Z,8.00
2023-02-17T03:42:25.435Z,7.90
2023-02-17T03:44:52.091Z,8.00
2023-02-17T03:47:18.811Z,7.90
2023-02-17T03:49:45.554Z,7.80
2023-02-17T03:52:12.265Z,7.70
2023-02-17T03:54:39.003Z,7.60
2023-02-17T03:57:05.791Z,7.50
2023-02-17T03:59:32.572Z,7.50
2023-02-17T04:01:59.550Z,7.40
2023-02-17T04:04:26.251Z,7.40
2023-02-17T04:06:52.994Z,7.40
2023-02-17T04:09:19.641Z,7.30
2023-02-17T04:11:46.353Z,7.30
2023-02-17T04:14:13.031Z,7.20
2023-02-17T04:16:39.690Z,7.30
2023-02-17T04:19:07.529Z,7.30
2023-02-17T04:21:34.717Z,7.30
2023-02-17T04:24:01.965Z,7.40
2023-02-17T04:26:29.537Z,7.30
2023-02-17T04:28:56.384Z,7.40
2023-02-17T04:31:23.393Z,7.30
2023-02-17T04:33:50.036Z,7.40
2023-02-17T04:36:16.742Z,7.40
2023-02-17T04:38:43.372Z,7.50
2023-02-17T04:41:10.041Z,7.70
2023-02-17T04:43:36.878Z,7.60
2023-02-17T04:46:03.710Z,7.90
2023-02-17T04:48:30.589Z,8.00
2023-02-17T04:50:57.281Z,8.10
2023-02-17T04:53:23.941Z,8.30
2023-02-17T04:55:52.641Z,8.40
2023-02-17T04:58:20.626Z,8.50
2023-02-17T05:00:48.930Z,8.60
2023-02-17T05:03:16.464Z,8.70
2023-02-17T05:05:43.298Z,8.50
2023-02-17T05:08:13.551Z,8.70
2023-02-17T05:10:40.423Z,8.70
2023-02-17T05:13:07.348Z,8.80
2023-02-17T05:15:35.085Z,8.90
2023-02-17T05:18:02.200Z,9.00
2023-02-17T05:20:29.243Z,9.00
2023-02-17T05:22:56.252Z,9.00
2023-02-17T05:25:23.051Z,9.00
2023-02-17T05:27:49.927Z,9.00
2023-02-17T05:30:16.726Z,9.00
2023-02-17T05:32:43.715Z,9.10
2023-02-17T05:35:10.708Z,9.10
2023-02-17T05:37:39.388Z,9.10
2023-02-17T05:40:07.062Z,9.10
2023-02-17T05:42:33.680Z,9.10
2023-02-17T05:45:00.340Z,9.20
2023-02-17T05:47:27.764Z,9.20
2023-02-17T05:49:54.631Z,9.30
2023-02-17T05:52:21.358Z,9.30
2023-02-17T05:54:48.023Z,9.10
2023-02-17T05:57:14.680Z,9.10
2023-02-17T05:59:41.629Z,9.20
2023-02-17T06:02:08.269Z,9.10
2023-02-17T06:04:35.016Z,9.10
2023-02-17T06:07:01.960Z,9.10
2023-02-17T06:09:28.665Z,9.00
2023-02-17T06:11:55.392Z,9.10
2023-02-17T06:14:22.283Z,9.10
2023-02-17T06:16:48.929Z,9.20
2023-02-17T06:19:15.613Z,9.20
2023-02-17T06:21:42.271Z,9.10
2023-02-17T06:24:08.946Z,8.90
2023-02-17T06:26:35.889Z,8.90
2023-02-17T06:29:02.573Z,9.00
2023-02-17T06:31:29.987Z,8.90
2023-02-17T06:34:12.181Z,8.90
2023-02-17T06:36:39.096Z,9.00
2023-02-17T06:39:05.780Z,9.00
2023-02-17T06:41:35.739Z,9.00
2023-02-17T06:44:02.518Z,8.90
2023-02-17T06:46:29.364Z,9.00
2023-02-17T06:48:56.706Z,9.00
2023-02-17T06:51:23.428Z,9.10
2023-02-17T06:53:50.240Z,9.00
2023-02-17T06:56:17.738Z,9.10
2023-02-17T06:58:45.426Z,9.00
2023-02-17T07:01:21.053Z,9.00
2023-02-17T07:03:48.212Z,9.00
2023-02-17T07:06:16.315Z,9.00
2023-02-17T07:08:43.167Z,9.10
2023-02-17T07:11:12.247Z,9.10
2023-02-17T07:13:51.528Z,9.10
2023-02-17T07:16:18.253Z,9.00
2023-02-17T07:18:45.285Z,8.70
2023-02-17T07:21:12.614Z,8.60
2023-02-17T07:23:43.587Z,8.60
2023-02-17T07:26:13.351Z,8.60
2023-02-17T07:28:46.599Z,8.80
2023-02-17T07:31:27.598Z,8.80
2023-02-17T07:33:54.754Z,8.80
2023-02-17T07:36:21.636Z,8.80
2023-02-17T07:38:48.863Z,8.70
2023-02-17T07:41:18.651Z,8.80
2023-02-17T07:43:46.353Z,8.90
2023-02-17T07:46:15.747Z,9.00
2023-02-17T07:48:42.774Z,9.10
2023-02-17T07:51:20.625Z,9.10
2023-02-17T07:53:48.456Z,9.20
2023-02-17T07:56:18.573Z,9.20
2023-02-17T07:58:45.952Z,9.20
2023-02-17T08:01:27.495Z,9.10
2023-02-17T08:04:03.145Z,9.10
2023-02-17T08:06:30.760Z,9.00
2023-02-17T08:09:16.304Z,9.10
2023-02-17T08:12:02.183Z,9.00
2023-02-17T08:14:30.778Z,9.20
2023-02-17T08:16:58.029Z,9.30
2023-02-17T08:19:27.195Z,9.40
2023-02-17T08:21:56.713Z,9.40
2023-02-17T08:24:24.618Z,9.40
2023-02-17T08:26:51.455Z,9.40
2023-02-17T08:29:20.103Z,9.30
2023-02-17T08:31:47.264Z,9.30
2023-02-17T08:34:15.424Z,9.50
2023-02-17T08:36:42.137Z,9.30
2023-02-17T08:39:12.501Z,9.10
2023-02-17T08:41:40.693Z,9.20
2023-02-17T08:44:11.673Z,9.20
2023-02-17T08:46:38.493Z,9.20
2023-02-17T08:49:06.210Z,9.20
2023-02-17T08:51:33.507Z,9.20
2023-02-17T08:54:01.151Z,9.20
2023-02-17T08:56:28.444Z,9.30
2023-02-17T08:58:55.657Z,9.20
2023-02-17T09:01:23.079Z,9.10
2023-02-17T09:03:51.495Z,9.10
2023-02-17T09:06:19.057Z,9.00
2023-02-17T09:08:46.007Z,9.00
2023-02-17T09:11:17.054Z,9.10
2023-02-17T09:13:44.754Z,9.30
2023-02-17T09:16:11.738Z,9.30
2023-02-17T09:18:38.394Z,9.20
2023-02-17T09:21:11.263Z,9.20
2023-02-17T09:23:38.580Z,9.20
2023-02-17T09:26:07.948Z,9.20
2023-02-17T09:28:35.194Z,9.10
2023-02-17T09:31:29.081Z,9.20
2023-02-17T09:33:56.205Z,9.10
2023-02-17T09:36:26.714Z,9.10
2023-02-17T09:38:54.138Z,9.10
2023-02-17T09:41:37.920Z,9.10
2023-02-17T09:44:07.799Z,9.10
2023-02-17T09:47:01.016Z,9.00
2023-02-17T09:49:38.226Z,8.90
2023-02-17T09:52:16.639Z,8.80
2023-02-17T09:55:07.495Z,8.60
2023-02-17T09:57:40.079Z,8.30
2023-02-17T10:00:16.465Z,8.60
2023-02-17T10:03:06.403Z,8.80
2023-02-17T10:05:46.656Z,9.00
2023-02-17T10:08:22.747Z,8.90
2023-02-17T10:10:59.244Z,8.80
2023-02-17T10:13:30.020Z,9.00
2023-02-17T10:16:04.218Z,8.90
2023-02-17T10:18:33.174Z,8.70
2023-02-17T10:21:07.482Z,8.60
2023-02-17T10:23:35.038Z,8.80
2023-02-17T10:26:24.454Z,8.90
2023-02-17T10:29:22.160Z,8.90
2023-02-17T10:32:04.240Z,8.90
2023-02-17T10:34:47.170Z,9.00
2023-02-17T10:37:32.024Z,9.00
2023-02-17T10:39:59.215Z,8.90
2023-02-17T10:42:33.938Z,8.90
2023-02-17T10:45:05.240Z,8.80
2023-02-17T10:47:35.650Z,8.90
2023-02-17T10:50:04.451Z,9.00
2023-02-17T10:52:38.548Z,8.90
2023-02-17T10:55:22.320Z,9.00
2023-02-17T10:57:54.590Z,9.10
2023-02-17T11:00:22.522Z,9.20
2023-02-17T11:02:51.752Z,9.20
2023-02-17T11:05:28.216Z,9.10
2023-02-17T11:08:07.357Z,9.20
2023-02-17T11:10:40.911Z,9.40
2023-02-17T11:13:36.526Z,9.30
2023-02-17T11:16:04.879Z,9.20
2023-02-17T11:18:34.393Z,9.00
2023-02-17T11:21:06.716Z,9.20
2023-02-17T11:23:34.357Z,9.30
2023-02-17T11:26:17.803Z,9.40
2023-02-17T11:28:44.491Z,9.50
2023-02-17T11:31:27.185Z,9.60
2023-02-17T11:33:56.801Z,9.70
2023-02-17T11:36:25.731Z,9.70
2023-02-17T11:38:52.503Z,9.70
2023-02-17T11:41:20.274Z,9.50
2023-02-17T11:43:57.158Z,9.40
2023-02-17T11:46:35.060Z,9.30
2023-02-17T11:49:38.427Z,9.40
2023-02-17T11:52:19.049Z,9.20
2023-02-17T11:55:17.892Z,9.20
2023-02-17T11:58:08.657Z,9.40
2023-02-17T12:00:54.351Z,9.60
2023-02-17T12:03:36.945Z,9.80
2023-02-17T12:06:16.865Z,9.90
2023-02-17T12:09:21.266Z,10.10
2023-02-17T12:12:22.516Z,10.00
2023-02-17T12:15:06.203Z,9.90
2023-02-17T12:17:45.732Z,9.80
2023-02-17T12:20:38.955Z,9.80
2023-02-17T12:23:27.333Z,9.90
2023-02-17T12:26:10.934Z,9.90
2023-02-17T12:29:00.242Z,9.90
2023-02-17T12:31:26.908Z,9.60
2023-02-17T12:34:03.773Z,9.60
2023-02-17T12:36:36.498Z,9.70
2023-02-17T12:39:15.754Z,9.70
2023-02-17T12:41:55.486Z,9.70
2023-02-17T12:44:30.173Z,9.90
2023-02-17T12:47:02.127Z,9.90
2023-02-17T12:49:37.290Z,10.00
2023-02-17T12:52:25.045Z,10.10
2023-02-17T12:54:57.733Z,10.00
2023-02-17T12:57:38.883Z,10.00
2023-02-17T13:00:23.594Z,10.10
2023-02-17T13:02:50.464Z,10.00
2023-02-17T13:05:24.072Z,9.90
2023-02-17T13:08:03.831Z,9.80
2023-02-17T13:10:33.833Z,9.60
2023-02-17T13:13:02.797Z,9.90
2023-02-17T13:15:34.485Z,9.90
2023-02-17T13:18:04.618Z,9.90
2023-02-17T13:21:01.757Z,9.80
2023-02-17T13:23:59.059Z,9.90
2023-02-17T13:26:30.359Z,9.80
2023-02-17T13:29:24.469Z,9.80
2023-02-17T13:32:12.609Z,9.90
2023-02-17T13:34:46.284Z,9.90
2023-02-17T13:37:19.412Z,9.70
2023-02-17T13:39:46.510Z,9.70
2023-02-17T13:42:35.139Z,9.80
2023-02-17T13:45:13.319Z,10.00
2023-02-17T13:47:41.909Z,10.10
2023-02-17T13:50:31.548Z,10.10
2023-02-17T13:52:58.654Z,10.10
2023-02-17T13:55:25.899Z,10.20
2023-02-17T13:57:55.375Z,10.10
2023-02-17T14:00:24.040Z,10.10
2023-02-17T14:02:54.162Z,10.10
2023-02-17T14:05:27.523Z,10.10
2023-02-17T14:07:59.390Z,10.10
2023-02-17T14:10:27.183Z,10.20
2023-02-17T14:12:55.227Z,10.50
2023-02-17T14:15:26.838Z,10.40
2023-02-17T14:17:54.596Z,10.40
2023-02-17T14:20:39.548Z,10.50
2023-02-17T14:23:13.912Z,10.60
2023-02-17T14:25:44.749Z,10.60
2023-02-17T14:28:20.633Z,10.60
2023-02-17T14:30:48.101Z,10.50
2023-02-17T14:33:17.766Z,10.40
2023-02-17T14:35:59.208Z,10.40
2023-02-17T14:38:34.969Z,10.50
2023-02-17T14:41:02.267Z,10.40
2023-02-17T14:43:29.776Z,10.40
2023-02-17T14:45:56.818Z,10.30
2023-02-17T14:48:27.611Z,10.30
2023-02-17T14:50:56.751Z,10.40
2023-02-17T14:53:27.981Z,10.50
2023-02-17T14:56:02.128Z,10.40
2023-02-17T14:58:30.103Z,10.30
2023-02-17T15:00:57.021Z,10.40
2023-02-17T15:03:23.783Z,10.50
2023-02-17T15:05:51.465Z,10.50
2023-02-17T15:08:29.884Z,10.50
2023-02-17T15:10:56.591Z,10.60
2023-02-17T15:13:23.316Z,10.40
2023-02-17T15:15:53.914Z,10.30
2023-02-17T15:18:21.207Z,10.10
2023-02-17T15:20:50.253Z,10.10
2023-02-17T15:23:20.040Z,10.10
2023-02-17T15:25:48.434Z,10.10
2023-02-17T15:28:17.583Z,10.20
2023-02-17T15:30:51.595Z,10.20
2023-02-17T15:33:20.365Z,10.20
2023-02-17T15:35:53.622Z,10.20
2023-02-17T15:38:20.744Z,10.10
2023-02-17T15:40:47.375Z,10.10
2023-02-17T15:43:19.298Z,10.10
2023-02-17T15:45:45.982Z,10.20
2023-02-17T15:48:24.339Z,10.20
2023-02-17T15:50:52.778Z,10.40
2023-02-17T15:53:19.860Z,10.60
2023-02-17T15:55:46.933Z,10.50
2023-02-17T15:58:17.275Z,10.70
2023-02-17T16:00:48.608Z,10.80
2023-02-17T16:03:15.490Z,10.80
2023-02-17T16:05:42.799Z,10.80
2023-02-17T16:08:09.821Z,10.70
2023-02-17T16:10:39.450Z,10.60
2023-02-17T16:13:06.242Z,10.50
2023-02-17T16:15:33.829Z,10.50
2023-02-17T16:18:03.674Z,10.70
2023-02-17T16:20:34.690Z,10.70
2023-02-17T16:23:02.176Z,10.70
2023-02-17T16:25:30.072Z,10.60
2023-02-17T16:27:57.050Z,10.50
2023-02-17T16:30:30.556Z,10.50
2023-02-17T16:32:57.420Z,10.40
2023-02-17T16:35:27.276Z,10.40
2023-02-17T16:37:56.646Z,10.60
2023-02-17T16:40:26.080Z,10.60
2023-02-17T16:42:57.396Z,10.50
2023-02-17T16:45:27.074Z,10.40
2023-02-17T16:47:59.925Z,10.30
2023-02-17T16:50:29.491Z,10.50
2023-02-17T16:52:59.524Z,10.60
2023-02-17T16:55:29.224Z,10.80
2023-02-17T16:57:56.360Z,10.60
2023-02-17T17:00:27.620Z,10.50
2023-02-17T17:02:54.336Z,10.40
2023-02-17T17:05:21.211Z,10.40
2023-02-17T17:07:48.170Z,10.30
2023-02-17T17:10:19.584Z,10.20
2023-02-17T17:12:46.862Z,10.30
2023-02-17T17:15:16.188Z,10.50
2023-02-17T17:17:51.640Z,10.60
2023-02-17T17:20:23.888Z,10.70
2023-02-17T17:22:51.397Z,10.80
2023-02-17T17:25:18.692Z,10.90
2023-02-17T17:27:46.013Z,10.90
2023-02-17T17:30:22.463Z,10.80
2023-02-17T17:32:49.288Z,10.80
2023-02-17T17:35:16.555Z,10.70
2023-02-17T17:37:43.341Z,10.60
2023-02-17T17:40:24.133Z,10.50
2023-02-17T17:42:51.163Z,10.50
2023-02-17T17:45:18.682Z,10.50
2023-02-17T17:47:45.543Z,10.40
2023-02-17T17:50:21.997Z,10.40
2023-02-17T17:52:49.236Z,10.30
2023-02-17T17:55:16.502Z,10.20
2023-02-17T17:57:43.159Z,10.20
2023-02-17T18:00:13.092Z,10.10
2023-02-17T18:02:43.401Z,10.10
2023-02-17T18:05:10.132Z,10.00
2023-02-17T18:07:38.492Z,10.20
2023-02-17T18:10:07.228Z,10.30
2023-02-17T18:12:37.701Z,10.30
2023-02-17T18:15:05.891Z,10.50
2023-02-17T18:17:35.485Z,10.40
2023-02-17T18:20:02.627Z,10.30
2023-02-17T18:22:29.340Z,10.20
2023-02-17T18:24:56.256Z,10.20
2023-02-17T18:27:22.991Z,10.10
2023-02-17T18:29:50.062Z,10.10
2023-02-17T18:32:16.771Z,10.10
2023-02-17T18:34:43.426Z,10.10
2023-02-17T18:37:10.119Z,9.90
2023-02-17T18:39:36.744Z,9.80
2023-02-17T18:42:04.434Z,10.00
2023-02-17T18:44:31.081Z,10.20
2023-02-17T18:46:57.722Z,10.30
2023-02-17T18:49:24.349Z,10.20
2023-02-17T18:51:51.241Z,10.00
2023-02-17T18:54:17.895Z,10.00
2023-02-17T18:56:45.083Z,10.10
2023-02-17T18:59:11.877Z,10.00
2023-02-17T19:01:40.752Z,10.10
2023-02-17T19:04:14.589Z,10.10
2023-02-17T19:06:48.916Z,10.10
2023-02-17T19:09:15.612Z,10.30
2023-02-17T19:11:42.296Z,10.20
2023-02-17T19:14:09.038Z,10.10
2023-02-17T19:16:35.734Z,10.20
2023-02-17T19:19:03.700Z,10.20
2023-02-17T19:21:30.446Z,10.20
2023-02-17T19:23:57.363Z,10.20
2023-02-17T19:26:24.051Z,10.20
2023-02-17T19:28:50.697Z,10.30
2023-02-17T19:31:19.552Z,10.30
2023-02-17T19:33:47.264Z,10.30
2023-02-17T19:36:18.026Z,10.20
2023-02-17T19:38:45.521Z,10.10
2023-02-17T19:41:13.569Z,10.20
2023-02-17T19:43:41.700Z,10.10
2023-02-17T19:46:22.654Z,10.20
2023-02-17T19:48:49.437Z,10.10
2023-02-17T19:51:16.116Z,10.10
2023-02-17T19:53:43.826Z,10.00
2023-02-17T19:56:17.968Z,9.80
2023-02-17T19:58:45.673Z,9.70
2023-02-17T20:01:23.770Z,9.90
2023-02-17T20:03:51.071Z,10.20
2023-02-17T20:06:35.747Z,10.30
2023-02-17T20:09:05.848Z,10.30
2023-02-17T20:11:33.355Z,10.30
2023-02-17T20:14:01.276Z,10.30
2023-02-17T20:16:28.875Z,10.30
2023-02-17T20:18:55.974Z,10.30
2023-02-17T20:21:25.472Z,10.30
2023-02-17T20:23:52.791Z,10.30
2023-02-17T20:26:22.791Z,10.10
2023-02-17T20:28:50.451Z,9.80
2023-02-17T20:31:17.699Z,9.80
2023-02-17T20:33:48.474Z,9.70
2023-02-17T20:36:15.435Z,9.80
2023-02-17T20:38:42.843Z,9.80
2023-02-17T20:41:13.955Z,9.80
2023-02-17T20:43:40.990Z,9.90
2023-02-17T20:46:10.920Z,9.80
2023-02-17T20:48:37.888Z,9.90
2023-02-17T20:51:05.701Z,10.00
2023-02-17T20:53:32.464Z,10.10
2023-02-17T20:55:59.138Z,10.00
2023-02-17T20:58:25.769Z,10.00
2023-02-17T21:00:52.475Z,10.10
2023-02-17T21:03:19.230Z,10.10
2023-02-17T21:05:45.976Z,10.10
2023-02-17T21:08:12.700Z,10.10
2023-02-17T21:10:40.516Z,10.00
2023-02-17T21:13:07.208Z,10.00
2023-02-17T21:15:33.989Z,9.90
2023-02-17T21:18:00.791Z,9.90
2023-02-17T21:20:27.459Z,10.00
2023-02-17T21:22:54.301Z,10.00
2023-02-17T21:25:20.940Z,9.90
2023-02-17T21:27:47.603Z,9.90
2023-02-17T21:30:14.913Z,9.90
2023-02-17T21:32:42.413Z,9.90
2023-02-17T21:35:10.936Z,10.00
2023-02-17T21:37:38.813Z,9.80
2023-02-17T21:40:10.579Z,9.80
2023-02-17T21:42:56.835Z,9.80
2023-02-17T21:45:24.522Z,9.60
2023-02-17T21:47:51.271Z,9.70
2023-02-17T21:50:18.840Z,9.80
2023-02-17T21:52:45.535Z,9.80
2023-02-17T21:55:12.267Z,9.80
2023-02-17T21:57:39.155Z,9.70
2023-02-17T22:00:06.668Z,9.90
2023-02-17T22:02:39.061Z,9.90
2023-02-17T22:05:06.670Z,9.90
2023-02-17T22:07:33.436Z,9.90
2023-02-17T22:10:00.390Z,9.90
2023-02-17T22:12:27.129Z,9.90
2023-02-17T22:14:54.053Z,9.80
2023-02-17T22:17:24.101Z,9.80
2023-02-17T22:19:51.317Z,9.90
2023-02-17T22:22:18.138Z,9.90
2023-02-17T22:24:44.997Z,10.10
2023-02-17T22:27:12.014Z,10.10
2023-02-17T22:29:38.804Z,10.00
2023-02-17T22:32:06.416Z,9.90
2023-02-17T22:34:33.361Z,10.00
2023-02-17T22:37:00.196Z,9.80
2023-02-17T22:39:27.189Z,9.80
2023-02-17T22:41:56.682Z,9.80
2023-02-17T22:44:24.349Z,9.60
2023-02-17T22:46:51.462Z,9.60
2023-02-17T22:49:21.298Z,9.60
2023-02-17T22:51:48.301Z,9.70
2023-02-17T22:54:15.289Z,9.80
2023-02-17T22:56:42.655Z,9.80
2023-02-17T22:59:09.771Z,9.90
2023-02-17T23:01:37.224Z,9.90
2023-02-17T23:04:04.560Z,9.70
2023-02-17T23:06:37.043Z,9.70
2023-02-17T23:09:06.239Z,9.90
2023-02-17T23:11:53.609Z,9.90
2023-02-17T23:14:31.142Z,9.80
2023-02-17T23:17:01.238Z,9.70
2023-02-17T23:19:29.061Z,9.90
2023-02-17T23:21:58.389Z,9.90
2023-02-17T23:24:26.458Z,9.80
2023-02-17T23:26:54.467Z,9.80
2023-02-17T23:29:21.719Z,9.70
2023-02-17T23:31:48.445Z,9.60
2023-02-17T23:34:16.179Z,9.60
2023-02-17T23:36:44.433Z,9.70
2023-02-17T23:39:11.087Z,9.80
2023-02-17T23:41:38.749Z,9.80
2023-02-17T23:44:08.226Z,9.80
2023-02-17T23:46:35.495Z,9.90
2023-02-17T23:49:07.906Z,9.80
2023-02-17T23:51:34.705Z,10.00
2023-02-17T23:54:01.429Z,10.10
2023-02-17T23:56:33.744Z,10.10
2023-02-17T23:59:01.226Z,10.00
